Overview Statistics Trail Chart Weather Telemetry Raw packets
 

This is the latest recevied weather packets stored in our database for station/object OK5TVR-5. If no packets are shown the sender has not sent any weather packets the latest 10 day(s).

<< 16 17 18 19 20 21 22 >>
Time Temp. Humidity Pressure Rain* Wind** Luminosity Snow
1788306740 12.22° C 79% 1015.5 hPa 0 mm - 0 W/m² -
1788305840 12.22° C 80% 1015.4 hPa 0 mm - 0 W/m² -
1788304940 12.78° C 78% 1015.4 hPa 0 mm - 0 W/m² -
1788304040 12.78° C 78% 1015.5 hPa 0 mm - 0 W/m² -
1788303140 12.78° C 80% 1015.5 hPa 0 mm - 0 W/m² -
1788302240 12.78° C 79% 1015.6 hPa 0 mm - 0 W/m² -
1788301340 12.78° C 77% 1015.5 hPa 0 mm - 0 W/m² -
1788300440 12.78° C 77% 1015.6 hPa 0 mm - 0 W/m² -
1788299540 13.33° C 77% 1015.5 hPa 0 mm - 0 W/m² -
1788298640 13.33° C 75% 1015.4 hPa 0 mm - 0 W/m² -
1788297740 13.33° C 75% 1015.5 hPa 0 mm - 0 W/m² -
1788296840 13.89° C 73% 1015.1 hPa 0 mm - 0 W/m² -
1788295940 13.89° C 74% 1015 hPa 0 mm - 0 W/m² -
1788295040 14.44° C 73% 1014.8 hPa 0 mm - 0 W/m² -
1788294140 14.44° C 70% 1014.7 hPa 0 mm - 0 W/m² -
1788293240 15° C 68% 1014.8 hPa 0 mm - 0 W/m² -
1788292340 15° C 69% 1014.5 hPa 0 mm - 0 W/m² -
1788291440 15.56° C 67% 1014.6 hPa 0 mm - 0 W/m² -
1788290542 16.11° C 66% 1014.5 hPa 0 mm - 0 W/m² -
1788289640 16.11° C 63% 1014.4 hPa 0 mm - 0 W/m² -
1788286885 17.78° C 59% 1013.6 hPa 0 mm - 0 W/m² -
1788285985 18.89° C 54% 1013.3 hPa 0 mm - 0 W/m² -
1788285085 20° C 50% 1013 hPa 0 mm - 1 W/m² -
1788284185 21.11° C 48% 1012.8 hPa 0 mm - 4 W/m² -
1788283293 22.22° C 46% 1012.6 hPa 0 mm - 11 W/m² -

* Rain latest hour (hover to see other rain measurements)
** Current wind speed in m/s (hover to see current wind gust speed)